Parkside, New York
Current Conditions -  °F | °C
As of 4:51 PM on Monday 22 Dec 2014 (Local Time) from KLGA Reporting Station
Drizzle Drizzle  
Wind Chill:   Ceiling: 1400
Heat Index:   Visibility: 7mi
Dew Point:   Wind: 7mph
Humidity: 89%   Direction: 40°NE
Pressure: 30.22"   Gusts: NA
Location:  40.7228°N, 73.845°W
Report Text: KLGA 222151Z 04006KT 7SM -DZ FEW008 BKN014 OVC021 06/04 A3022 RMK AO2 SLP233 P0000 T00560039
Loading
Personal Weather Stations






























Interactive Weather Map New forecast layout! Learn more

10-Day Weather Forecast

Advertisements
Track Severe Weather on mobile